| Back to River Map | <<< Previous Forecast Point | | | Next Forecast Point >>> | Printer Version | Graph Version |  |
|
TRINITY RIVER - BURNT RANCH (BURC1)
| Latitude: 40.79º N | Longitude: 123.44º W | Elevation: 944 Feet | | Forecast Type: Unofficial Location |
| Location: Trinity County in California | Bulletin Group: North Coast | River Group: Klamath |
| Issuance Time: | Sep 02 2026 at 7:21 AM PDT | Next Issuance: | Sep 03 2026 at 9:00 AM PDT
| |
| Action: N/A | Minor Flood: N/A | Moderate Flood: N/A | Major Flood: N/A |
# Tabular Observed and Forecast Hydrograph Information
#
# Location: Trinity River - Burnt Ranch (BURC1)
#
# File Generation Time: 09/02/2026 at 07:23 AM PDT
# Data Interval: 1 Hour
#
# Most Recent Date & Time of Maximum Observed: 09/02/2026 at 03:00 AM PDT
# Maximum Observed Stage: 4.28 Feet
# Maximum Observed Flow: 1200 cfs
#
# Earliest Date & Time of Maximum Forecast: 09/03/2026 at 09:00 AM PDT
# Maximum Forecast Stage: 4.73 Feet
# Maximum Forecast Flow: 1440 cfs
#
# OBSERVED
#
# Date & Time (Local) Stage (Feet) Flow (cfs) Trend Observed Status
# ---------------------------------------------------------------------------------
08/28/2026 07 AM PDT 2.74 535 Not Applicable
08/28/2026 08 AM PDT 2.71 524 - Not Applicable
08/28/2026 09 AM PDT 2.69 517 - Not Applicable
08/28/2026 10 AM PDT 2.67 509 - Not Applicable
08/28/2026 11 AM PDT 2.67 509 0 Not Applicable
08/28/2026 12 PM PDT 2.66 506 - Not Applicable
08/28/2026 01 PM PDT 2.66 506 0 Not Applicable
08/28/2026 02 PM PDT 2.65 502 - Not Applicable
08/28/2026 03 PM PDT 2.64 499 - Not Applicable
08/28/2026 04 PM PDT 2.64 499 0 Not Applicable
08/28/2026 05 PM PDT 2.65 502 + Not Applicable
08/28/2026 06 PM PDT 2.64 499 - Not Applicable
08/28/2026 07 PM PDT 2.65 502 + Not Applicable
08/28/2026 08 PM PDT 2.64 499 - Not Applicable
08/28/2026 09 PM PDT 2.64 499 0 Not Applicable
08/28/2026 10 PM PDT 2.64 499 0 Not Applicable
08/28/2026 11 PM PDT 2.65 502 + Not Applicable
08/29/2026 12 AM PDT 2.64 499 - Not Applicable
08/29/2026 01 AM PDT 2.64 499 0 Not Applicable
08/29/2026 02 AM PDT 2.64 499 0 Not Applicable
08/29/2026 03 AM PDT 2.65 502 + Not Applicable
08/29/2026 04 AM PDT 2.65 502 0 Not Applicable
08/29/2026 05 AM PDT 2.64 499 - Not Applicable
08/29/2026 06 AM PDT 2.64 499 0 Not Applicable
08/29/2026 07 AM PDT 2.67 509 + Not Applicable
08/29/2026 08 AM PDT 2.89 591 + Not Applicable
08/29/2026 09 AM PDT 3.33 766 + Not Applicable
08/29/2026 10 AM PDT 3.67 913 + Not Applicable
08/29/2026 11 AM PDT 3.86 999 + Not Applicable
08/29/2026 12 PM PDT 3.97 1051 + Not Applicable
08/29/2026 01 PM PDT 4.01 1069 + Not Applicable
08/29/2026 02 PM PDT 4.07 1098 + Not Applicable
08/29/2026 03 PM PDT 4.07 1098 0 Not Applicable
08/29/2026 04 PM PDT 4.07 1098 0 Not Applicable
08/29/2026 05 PM PDT 4.09 1108 + Not Applicable
08/29/2026 06 PM PDT 4.09 1108 0 Not Applicable
08/29/2026 07 PM PDT 4.12 1122 + Not Applicable
08/29/2026 08 PM PDT 4.14 1132 + Not Applicable
08/29/2026 09 PM PDT 4.16 1141 + Not Applicable
08/29/2026 10 PM PDT 4.18 1151 + Not Applicable
08/29/2026 11 PM PDT 4.18 1151 0 Not Applicable
08/30/2026 12 AM PDT 4.18 1151 0 Not Applicable
08/30/2026 01 AM PDT 4.20 1161 + Not Applicable
08/30/2026 02 AM PDT 4.20 1161 0 Not Applicable
08/30/2026 03 AM PDT 4.18 1151 - Not Applicable
08/30/2026 04 AM PDT 4.18 1151 0 Not Applicable
08/30/2026 05 AM PDT 4.20 1161 + Not Applicable
08/30/2026 06 AM PDT 4.20 1161 0 Not Applicable
08/30/2026 07 AM PDT 4.20 1161 0 Not Applicable
08/30/2026 08 AM PDT 4.18 1151 - Not Applicable
08/30/2026 09 AM PDT 4.20 1161 + Not Applicable
08/30/2026 10 AM PDT 4.18 1151 - Not Applicable
08/30/2026 11 AM PDT 4.20 1161 + Not Applicable
08/30/2026 12 PM PDT 4.20 1161 0 Not Applicable
08/30/2026 01 PM PDT 4.20 1161 0 Not Applicable
08/30/2026 02 PM PDT 4.20 1161 0 Not Applicable
08/30/2026 03 PM PDT 4.22 1171 + Not Applicable
08/30/2026 04 PM PDT 4.20 1161 - Not Applicable
08/30/2026 05 PM PDT 4.22 1171 + Not Applicable
08/30/2026 06 PM PDT 4.22 1171 0 Not Applicable
08/30/2026 07 PM PDT 4.20 1161 - Not Applicable
08/30/2026 08 PM PDT 4.24 1180 + Not Applicable
08/30/2026 09 PM PDT 4.22 1171 - Not Applicable
08/30/2026 10 PM PDT 4.24 1180 + Not Applicable
08/30/2026 11 PM PDT 4.22 1171 - Not Applicable
08/31/2026 12 AM PDT 4.24 1180 + Not Applicable
08/31/2026 01 AM PDT 4.22 1171 - Not Applicable
08/31/2026 02 AM PDT 4.22 1171 0 Not Applicable
08/31/2026 03 AM PDT 4.22 1171 0 Not Applicable
08/31/2026 04 AM PDT 4.22 1171 0 Not Applicable
08/31/2026 05 AM PDT 4.22 1171 0 Not Applicable
08/31/2026 06 AM PDT 4.22 1171 0 Not Applicable
08/31/2026 07 AM PDT 4.22 1171 0 Not Applicable
08/31/2026 08 AM PDT 4.20 1161 - Not Applicable
08/31/2026 09 AM PDT 4.20 1161 0 Not Applicable
08/31/2026 10 AM PDT 4.20 1161 0 Not Applicable
08/31/2026 11 AM PDT 4.20 1161 0 Not Applicable
08/31/2026 12 PM PDT 4.22 1171 + Not Applicable
08/31/2026 01 PM PDT 4.22 1171 0 Not Applicable
08/31/2026 02 PM PDT 4.22 1171 0 Not Applicable
08/31/2026 03 PM PDT 4.22 1171 0 Not Applicable
08/31/2026 04 PM PDT 4.22 1171 0 Not Applicable
08/31/2026 05 PM PDT 4.24 1180 + Not Applicable
08/31/2026 06 PM PDT 4.22 1171 - Not Applicable
08/31/2026 07 PM PDT 4.24 1180 + Not Applicable
08/31/2026 08 PM PDT 4.24 1180 0 Not Applicable
08/31/2026 09 PM PDT 4.24 1180 0 Not Applicable
08/31/2026 10 PM PDT 4.24 1180 0 Not Applicable
08/31/2026 11 PM PDT 4.24 1180 0 Not Applicable
09/01/2026 12 AM PDT 4.24 1180 0 Not Applicable
09/01/2026 01 AM PDT 4.24 1180 0 Not Applicable
09/01/2026 02 AM PDT 4.24 1180 0 Not Applicable
09/01/2026 03 AM PDT 4.24 1180 0 Not Applicable
09/01/2026 04 AM PDT 4.24 1180 0 Not Applicable
09/01/2026 05 AM PDT 4.22 1171 - Not Applicable
09/01/2026 06 AM PDT 4.22 1171 0 Not Applicable
09/01/2026 07 AM PDT 4.22 1171 0 Not Applicable
09/01/2026 08 AM PDT 4.22 1171 0 Not Applicable
09/01/2026 09 AM PDT 4.20 1161 - Not Applicable
09/01/2026 10 AM PDT 4.22 1171 + Not Applicable
09/01/2026 11 AM PDT 4.20 1161 - Not Applicable
09/01/2026 12 PM PDT 4.20 1161 0 Not Applicable
09/01/2026 01 PM PDT 4.21 1166 + Not Applicable
09/01/2026 02 PM PDT 4.22 1171 + Not Applicable
09/01/2026 03 PM PDT 4.24 1180 + Not Applicable
09/01/2026 04 PM PDT 4.24 1180 0 Not Applicable
09/01/2026 05 PM PDT 4.26 1190 + Not Applicable
09/01/2026 06 PM PDT 4.26 1190 0 Not Applicable
09/01/2026 07 PM PDT 4.24 1180 - Not Applicable
09/01/2026 08 PM PDT 4.26 1190 + Not Applicable
09/01/2026 09 PM PDT 4.26 1190 0 Not Applicable
09/01/2026 10 PM PDT 4.26 1190 0 Not Applicable
09/01/2026 11 PM PDT 4.26 1190 0 Not Applicable
09/02/2026 12 AM PDT 4.26 1190 0 Not Applicable
09/02/2026 01 AM PDT 4.26 1190 0 Not Applicable
09/02/2026 02 AM PDT 4.26 1190 0 Not Applicable
09/02/2026 03 AM PDT 4.28 1200 + Not Applicable
09/02/2026 04 AM PDT 4.26 1190 - Not Applicable
09/02/2026 05 AM PDT 4.26 1190 0 Not Applicable
09/02/2026 06 AM PDT 4.26 1190 0 Not Applicable
09/02/2026 07 AM PDT 4.25 1185 - Not Applicable
#
# FORECAST
#
# Date & Time (Local) Stage (Feet) Flow (cfs) Trend Forecast Status
# ---------------------------------------------------------------------------------
09/02/2026 08 AM PDT 4.25 1185 Not Applicable
09/02/2026 09 AM PDT 4.25 1185 0 Not Applicable
09/02/2026 10 AM PDT 4.25 1185 0 Not Applicable
09/02/2026 11 AM PDT 4.25 1185 0 Not Applicable
09/02/2026 12 PM PDT 4.25 1185 0 Not Applicable
09/02/2026 01 PM PDT 4.26 1190 + Not Applicable
09/02/2026 02 PM PDT 4.26 1190 0 Not Applicable
09/02/2026 03 PM PDT 4.26 1190 0 Not Applicable
09/02/2026 04 PM PDT 4.27 1195 + Not Applicable
09/02/2026 05 PM PDT 4.27 1195 0 Not Applicable
09/02/2026 06 PM PDT 4.28 1200 + Not Applicable
09/02/2026 07 PM PDT 4.29 1205 + Not Applicable
09/02/2026 08 PM PDT 4.30 1210 + Not Applicable
09/02/2026 09 PM PDT 4.32 1220 + Not Applicable
09/02/2026 10 PM PDT 4.35 1236 + Not Applicable
09/02/2026 11 PM PDT 4.38 1251 + Not Applicable
09/03/2026 12 AM PDT 4.41 1267 + Not Applicable
09/03/2026 01 AM PDT 4.45 1288 + Not Applicable
09/03/2026 02 AM PDT 4.50 1315 + Not Applicable
09/03/2026 03 AM PDT 4.55 1342 + Not Applicable
09/03/2026 04 AM PDT 4.59 1363 + Not Applicable
09/03/2026 05 AM PDT 4.63 1385 + Not Applicable
09/03/2026 06 AM PDT 4.66 1401 + Not Applicable
09/03/2026 07 AM PDT 4.69 1418 + Not Applicable
09/03/2026 08 AM PDT 4.71 1429 + Not Applicable
09/03/2026 09 AM PDT 4.73 1440 + Not Applicable
09/03/2026 10 AM PDT 4.73 1440 0 Not Applicable
09/03/2026 11 AM PDT 4.73 1440 0 Not Applicable
09/03/2026 12 PM PDT 4.73 1440 0 Not Applicable
09/03/2026 01 PM PDT 4.72 1434 - Not Applicable
09/03/2026 02 PM PDT 4.70 1423 - Not Applicable
09/03/2026 03 PM PDT 4.68 1412 - Not Applicable
09/03/2026 04 PM PDT 4.67 1407 - Not Applicable
09/03/2026 05 PM PDT 4.65 1396 - Not Applicable
09/03/2026 06 PM PDT 4.63 1385 - Not Applicable
09/03/2026 07 PM PDT 4.61 1374 - Not Applicable
09/03/2026 08 PM PDT 4.59 1363 - Not Applicable
09/03/2026 09 PM PDT 4.58 1358 - Not Applicable
09/03/2026 10 PM PDT 4.56 1347 - Not Applicable
09/03/2026 11 PM PDT 4.55 1342 - Not Applicable
09/04/2026 12 AM PDT 4.53 1331 - Not Applicable
09/04/2026 01 AM PDT 4.52 1325 - Not Applicable
09/04/2026 02 AM PDT 4.51 1320 - Not Applicable
09/04/2026 03 AM PDT 4.50 1315 - Not Applicable
09/04/2026 04 AM PDT 4.49 1309 - Not Applicable
09/04/2026 05 AM PDT 4.48 1304 - Not Applicable
09/04/2026 06 AM PDT 4.47 1299 - Not Applicable
09/04/2026 07 AM PDT 4.46 1293 - Not Applicable
09/04/2026 08 AM PDT 4.44 1283 - Not Applicable
09/04/2026 09 AM PDT 4.43 1278 - Not Applicable
09/04/2026 10 AM PDT 4.42 1272 - Not Applicable
09/04/2026 11 AM PDT 4.41 1267 - Not Applicable
09/04/2026 12 PM PDT 4.39 1257 - Not Applicable
09/04/2026 01 PM PDT 4.38 1251 - Not Applicable
09/04/2026 02 PM PDT 4.37 1246 - Not Applicable
09/04/2026 03 PM PDT 4.36 1241 - Not Applicable
09/04/2026 04 PM PDT 4.35 1236 - Not Applicable
09/04/2026 05 PM PDT 4.35 1236 0 Not Applicable
09/04/2026 06 PM PDT 4.34 1230 - Not Applicable
09/04/2026 07 PM PDT 4.33 1225 - Not Applicable
09/04/2026 08 PM PDT 4.33 1225 0 Not Applicable
09/04/2026 09 PM PDT 4.32 1220 - Not Applicable
09/04/2026 10 PM PDT 4.32 1220 0 Not Applicable
09/04/2026 11 PM PDT 4.31 1215 - Not Applicable
09/05/2026 12 AM PDT 4.31 1215 0 Not Applicable
09/05/2026 01 AM PDT 4.30 1210 - Not Applicable
09/05/2026 02 AM PDT 4.30 1210 0 Not Applicable
09/05/2026 03 AM PDT 4.30 1210 0 Not Applicable
09/05/2026 04 AM PDT 4.30 1210 0 Not Applicable
09/05/2026 05 AM PDT 4.29 1205 - Not Applicable
09/05/2026 06 AM PDT 4.29 1205 0 Not Applicable
09/05/2026 07 AM PDT 4.29 1205 0 Not Applicable
09/05/2026 08 AM PDT 4.29 1205 0 Not Applicable
09/05/2026 09 AM PDT 4.29 1205 0 Not Applicable
09/05/2026 10 AM PDT 4.29 1205 0 Not Applicable
09/05/2026 11 AM PDT 4.28 1200 - Not Applicable
09/05/2026 12 PM PDT 4.28 1200 0 Not Applicable
09/05/2026 01 PM PDT 4.28 1200 0 Not Applicable
09/05/2026 02 PM PDT 4.28 1200 0 Not Applicable
09/05/2026 03 PM PDT 4.28 1200 0 Not Applicable
09/05/2026 04 PM PDT 4.28 1200 0 Not Applicable
09/05/2026 05 PM PDT 4.28 1200 0 Not Applicable
09/05/2026 06 PM PDT 4.28 1200 0 Not Applicable
09/05/2026 07 PM PDT 4.28 1200 0 Not Applicable
09/05/2026 08 PM PDT 4.28 1200 0 Not Applicable
09/05/2026 09 PM PDT 4.28 1200 0 Not Applicable
09/05/2026 10 PM PDT 4.28 1200 0 Not Applicable
09/05/2026 11 PM PDT 4.28 1200 0 Not Applicable
09/06/2026 12 AM PDT 4.28 1200 0 Not Applicable
09/06/2026 01 AM PDT 4.28 1200 0 Not Applicable
09/06/2026 02 AM PDT 4.28 1200 0 Not Applicable
09/06/2026 03 AM PDT 4.28 1200 0 Not Applicable
09/06/2026 04 AM PDT 4.28 1200 0 Not Applicable
09/06/2026 05 AM PDT 4.28 1200 0 Not Applicable
09/06/2026 06 AM PDT 4.28 1200 0 Not Applicable
09/06/2026 07 AM PDT 4.28 1200 0 Not Applicable
09/06/2026 08 AM PDT 4.28 1200 0 Not Applicable
09/06/2026 09 AM PDT 4.28 1200 0 Not Applicable
09/06/2026 10 AM PDT 4.28 1200 0 Not Applicable
09/06/2026 11 AM PDT 4.28 1200 0 Not Applicable
09/06/2026 12 PM PDT 4.28 1200 0 Not Applicable
09/06/2026 01 PM PDT 4.28 1200 0 Not Applicable
09/06/2026 02 PM PDT 4.28 1200 0 Not Applicable
09/06/2026 03 PM PDT 4.28 1200 0 Not Applicable
09/06/2026 04 PM PDT 4.28 1200 0 Not Applicable
09/06/2026 05 PM PDT 4.28 1200 0 Not Applicable
09/06/2026 06 PM PDT 4.28 1200 0 Not Applicable
09/06/2026 07 PM PDT 4.28 1200 0 Not Applicable
09/06/2026 08 PM PDT 4.28 1200 0 Not Applicable
09/06/2026 09 PM PDT 4.28 1200 0 Not Applicable
09/06/2026 10 PM PDT 4.28 1200 0 Not Applicable
09/06/2026 11 PM PDT 4.28 1200 0 Not Applicable
09/07/2026 12 AM PDT 4.29 1205 + Not Applicable
09/07/2026 01 AM PDT 4.29 1205 0 Not Applicable
09/07/2026 02 AM PDT 4.29 1205 0 Not Applicable
09/07/2026 03 AM PDT 4.29 1205 0 Not Applicable
09/07/2026 04 AM PDT 4.30 1210 + Not Applicable
09/07/2026 05 AM PDT 4.30 1210 0 Not Applicable
#
# NOTE 1: Stages are rounded to the nearest hundredth (.01) of a foot.
# NOTE 2: Flows are rounded to the nearest (1) cfs.
# NOTE 3: Trends are determined using hourly change in unrounded stage and flow.
# NOTE 4: Maximum Values are determined using unrounded stage and flow.
|